Time;durP1;ratioP1;P1;durP2;ratioP2;P2;SDS_P1;SDS_P2;PMS_P1;PMS_P2;Temp;Humidity;BMP_temperature;BMP_pressure;BME280_temperature;BME280_humidity;BME280_pressure;Samples;Min_cycle;Max_cycle;Signal;HPM_P1;HPM_P2
2021/12/11 00:00:15;;;;;;;25.85;8.70;;;-1.20;97.70;;;;;;4240040;27;20035;-81
2021/12/11 00:02:23;;;;;;;24.48;8.15;;;-1.40;97.70;;;;;;4251143;27;20054;-81
2021/12/11 00:04:33;;;;;;;20.33;7.43;;;-0.30;98.00;;;;;;4250690;27;20059;-82
2021/12/11 00:06:41;;;;;;;18.40;7.68;;;-1.10;97.70;;;;;;4258845;27;20386;-82
2021/12/11 00:08:45;;;;;;;13.93;5.53;;;-1.10;97.60;;;;;;4233527;28;20167;-81
2021/12/11 00:10:54;;;;;;;15.13;6.18;;;-0.90;97.70;;;;;;4250715;27;20043;-81
2021/12/11 00:13:00;;;;;;;12.88;5.25;;;-1.20;97.60;;;;;;4261721;27;20042;-82
2021/12/11 00:15:14;;;;;;;9.65;4.53;;;-1.20;97.50;;;;;;4267651;27;20042;-82
2021/12/11 00:17:29;;;;;;;12.45;4.47;;;-1.30;97.60;;;;;;4268967;27;20034;-82
2021/12/11 00:19:34;;;;;;;8.77;3.63;;;-1.00;97.70;;;;;;4233713;28;20104;-82
2021/12/11 00:21:35;;;;;;;8.30;3.45;;;-0.60;97.80;;;;;;4268346;27;20082;-82
2021/12/11 00:23:42;;;;;;;6.68;3.83;;;-1.40;97.80;;;;;;4233311;28;20047;-82
2021/12/11 00:25:45;;;;;;;10.57;4.28;;;-0.50;97.80;;;;;;4250788;27;20103;-82
2021/12/11 00:27:49;;;;;;;10.18;4.53;;;-1.40;98.00;;;;;;4232412;28;20055;-82
2021/12/11 00:29:50;;;;;;;15.85;6.15;;;-1.40;97.80;;;;;;4268485;27;20074;-82
2021/12/11 00:32:07;;;;;;;11.52;5.40;;;-1.50;97.80;;;;;;4267001;27;20046;-82
2021/12/11 00:34:22;;;;;;;14.18;6.38;;;-1.40;97.90;;;;;;4227640;27;20110;-81
2021/12/11 00:36:31;;;;;;;15.23;5.85;;;-0.80;98.10;;;;;;4180112;28;20033;-82
2021/12/11 00:38:34;;;;;;;17.20;5.95;;;-1.10;98.00;;;;;;4196448;28;20052;-81
2021/12/11 00:40:36;;;;;;;13.23;5.78;;;-1.60;98.00;;;;;;4195269;28;20047;-81
2021/12/11 00:42:39;;;;;;;16.60;6.80;;;-0.50;98.20;;;;;;4196246;28;20497;-82
2021/12/11 00:44:46;;;;;;;17.88;6.63;;;-1.70;97.90;;;;;;4180192;28;20041;-81
2021/12/11 00:46:47;;;;;;;19.75;8.73;;;-1.50;97.90;;;;;;4195753;28;20045;-81
2021/12/11 00:48:49;;;;;;;16.08;6.43;;;-2.40;97.90;;;;;;4179551;28;20211;-81
2021/12/11 00:51:00;;;;;;;21.08;7.43;;;-0.10;98.50;;;;;;4195418;28;20041;-81
2021/12/11 00:53:31;;;;;;;22.15;9.38;;;-1.60;98.10;;;;;;4196101;28;20107;-81
2021/12/11 00:55:36;;;;;;;25.77;9.00;;;-1.40;98.20;;;;;;4179451;28;20037;-81
2021/12/11 00:57:38;;;;;;;17.88;7.88;;;-1.00;98.40;;;;;;4180147;28;20049;-81
2021/12/11 00:59:40;;;;;;;21.02;8.75;;;-1.30;98.30;;;;;;4194475;28;20063;-80
2021/12/11 01:01:51;;;;;;;22.80;8.20;;;-0.80;98.50;;;;;;4188304;28;20057;-80
2021/12/11 01:03:58;;;;;;;19.63;8.25;;;-1.40;98.10;;;;;;4193429;28;20091;-81
2021/12/11 01:06:11;;;;;;;19.75;7.30;;;-1.40;98.10;;;;;;4196102;28;20195;-81
2021/12/11 01:08:23;;;;;;;21.13;8.00;;;-1.70;97.90;;;;;;4179808;28;20048;-81
2021/12/11 01:10:27;;;;;;;23.35;8.65;;;-1.50;98.10;;;;;;4191490;28;20118;-81
2021/12/11 01:12:50;;;;;;;23.67;8.88;;;-2.20;98.10;;;;;;4194377;28;20061;-81
2021/12/11 01:15:06;;;;;;;19.38;7.70;;;-1.50;98.30;;;;;;4195897;28;20056;-81
2021/12/11 01:17:22;;;;;;;18.20;7.78;;;-1.60;98.40;;;;;;4180808;28;20441;-81
2021/12/11 01:19:35;;;;;;;23.80;8.15;;;-1.60;98.20;;;;;;4187455;28;20036;-81
2021/12/11 01:23:56;;;;;;;17.35;7.45;;;-1.60;98.30;;;;;;4194707;28;20678;-81
2021/12/11 01:25:59;;;;;;;21.88;8.23;;;-1.30;98.40;;;;;;4168032;28;20049;-81
2021/12/11 01:28:02;;;;;;;20.65;8.13;;;-0.20;98.60;;;;;;4179162;28;20077;-81
2021/12/11 01:30:08;;;;;;;21.17;8.43;;;-1.70;98.10;;;;;;4196695;28;20054;-81
2021/12/11 01:32:11;;;;;;;20.02;6.60;;;-1.70;98.20;;;;;;4179703;28;20136;-81
2021/12/11 01:34:14;;;;;;;18.42;7.28;;;-0.50;98.40;;;;;;4163132;28;20076;-81
2021/12/11 01:36:14;;;;;;;18.77;7.22;;;-1.90;98.10;;;;;;4179486;28;20045;-80
2021/12/11 01:38:23;;;;;;;18.05;7.28;;;-2.30;98.40;;;;;;4179440;28;20145;-80
2021/12/11 01:40:31;;;;;;;16.38;6.85;;;-0.70;98.60;;;;;;4195557;28;20044;-81
2021/12/11 01:42:33;;;;;;;24.63;9.85;;;-1.70;98.40;;;;;;4179814;28;20045;-80
2021/12/11 01:44:38;;;;;;;23.73;10.93;;;-1.70;98.40;;;;;;4174341;28;20085;-80
2021/12/11 01:46:40;;;;;;;21.90;9.60;;;-0.90;98.60;;;;;;4162538;28;20053;-81
2021/12/11 01:48:47;;;;;;;23.17;9.68;;;-0.50;98.90;;;;;;4167976;28;20049;-81
2021/12/11 01:50:58;;;;;;;27.45;8.90;;;-1.50;98.50;;;;;;4168648;28;20095;-81
2021/12/11 01:53:14;;;;;;;25.88;10.90;;;-1.60;98.40;;;;;;4161350;28;20065;-81
2021/12/11 01:55:38;;;;;;;23.30;9.27;;;-1.60;98.40;;;;;;4167086;28;20130;-81
2021/12/11 01:57:51;;;;;;;16.83;7.57;;;-1.70;98.30;;;;;;4167625;28;20044;-81
2021/12/11 02:00:06;;;;;;;21.40;6.57;;;-1.70;98.30;;;;;;4168210;28;20521;-81
2021/12/11 02:02:19;;;;;;;16.05;6.25;;;-1.30;98.50;;;;;;4185839;28;20076;-81
2021/12/11 02:04:25;;;;;;;16.40;5.88;;;-1.90;98.30;;;;;;4167637;28;20038;-81
2021/12/11 02:06:33;;;;;;;22.70;6.53;;;-1.10;98.70;;;;;;4168588;28;20128;-80
2021/12/11 02:08:37;;;;;;;14.07;6.18;;;-2.00;98.40;;;;;;4182460;28;20045;-81
2021/12/11 02:10:52;;;;;;;17.77;5.93;;;-1.00;98.80;;;;;;4167798;28;20132;-82
2021/12/11 02:12:59;;;;;;;19.42;7.20;;;-1.80;98.50;;;;;;4152686;28;20070;-82
2021/12/11 02:15:02;;;;;;;17.08;6.40;;;-1.70;99.00;;;;;;4168131;28;20052;-82
2021/12/11 02:17:05;;;;;;;14.98;5.65;;;-1.80;98.80;;;;;;4151481;28;20088;-82
2021/12/11 02:19:28;;;;;;;13.27;4.72;;;-1.00;98.80;;;;;;4166869;28;20124;-81
2021/12/11 02:21:36;;;;;;;9.82;4.53;;;-1.80;98.50;;;;;;4166400;28;20072;-81
2021/12/11 02:23:39;;;;;;;11.70;4.40;;;-0.40;99.10;;;;;;4167682;28;20049;-81
2021/12/11 02:25:46;;;;;;;9.43;4.38;;;-0.70;99.10;;;;;;4168189;28;20505;-81
2021/12/11 02:27:59;;;;;;;12.98;4.38;;;-2.00;98.60;;;;;;4156620;28;20124;-81
2021/12/11 02:30:23;;;;;;;9.48;3.85;;;-2.00;98.50;;;;;;4177152;28;20057;-80
2021/12/11 02:32:39;;;;;;;11.77;4.35;;;-2.10;98.50;;;;;;4167797;28;20568;-81
2021/12/11 02:34:53;;;;;;;13.02;4.95;;;-2.00;98.60;;;;;;4180981;28;20056;-81
2021/12/11 02:36:58;;;;;;;13.23;4.53;;;-1.30;99.00;;;;;;4167208;28;20509;-81
2021/12/11 02:39:15;;;;;;;11.68;4.32;;;-1.30;98.90;;;;;;4168054;28;20057;-81
2021/12/11 02:41:29;;;;;;;12.35;3.88;;;-2.00;98.60;;;;;;4151852;28;20116;-81
2021/12/11 02:43:54;;;;;;;9.52;3.50;;;-2.10;98.50;;;;;;4185083;28;20045;-82
2021/12/11 02:46:06;;;;;;;14.43;5.15;;;-2.00;98.60;;;;;;4185503;28;20033;-81
2021/12/11 02:48:19;;;;;;;11.10;4.90;;;-2.10;98.60;;;;;;4142478;28;20054;-81
2021/12/11 02:50:42;;;;;;;9.10;3.83;;;-2.00;98.60;;;;;;4152734;28;20085;-81
2021/12/11 02:52:54;;;;;;;10.50;4.70;;;-2.10;98.90;;;;;;4186236;28;20045;-82
2021/12/11 02:55:12;;;;;;;10.30;4.35;;;-2.20;98.80;;;;;;4186585;28;20522;-82
2021/12/11 02:57:32;;;;;;;11.38;5.15;;;-1.90;98.90;;;;;;4186063;28;20508;-81
2021/12/11 02:59:40;;;;;;;14.25;4.90;;;-1.90;98.90;;;;;;4165345;28;20045;-81
2021/12/11 03:01:49;;;;;;;15.57;4.80;;;-0.40;99.40;;;;;;4151127;28;20577;-81
2021/12/11 03:04:00;;;;;;;13.68;5.80;;;-1.80;98.70;;;;;;4168198;28;20064;-81
2021/12/11 03:06:16;;;;;;;16.30;5.30;;;-1.10;99.10;;;;;;4185513;28;20045;-81
2021/12/11 03:08:20;;;;;;;15.63;6.38;;;-1.90;99.00;;;;;;4175189;28;20095;-81
2021/12/11 03:10:25;;;;;;;15.70;6.07;;;-1.90;98.80;;;;;;4185344;28;20120;-81
2021/12/11 03:12:27;;;;;;;15.00;5.68;;;-0.40;99.10;;;;;;4151316;28;20057;-81
2021/12/11 03:14:28;;;;;;;17.83;5.97;;;-1.00;99.10;;;;;;4167411;28;20061;-82
2021/12/11 03:16:35;;;;;;;14.73;6.10;;;-0.90;98.90;;;;;;4158162;28;20638;-81
2021/12/11 03:18:37;;;;;;;14.82;6.22;;;-1.90;98.60;;;;;;4147372;28;20457;-81
2021/12/11 03:20:40;;;;;;;16.27;7.72;;;-0.80;99.20;;;;;;4185418;28;20049;-81
2021/12/11 03:22:43;;;;;;;16.02;6.38;;;-0.60;99.00;;;;;;4167757;28;20391;-81
2021/12/11 03:24:46;;;;;;;18.90;6.47;;;-1.00;99.10;;;;;;4175759;28;20401;-81
2021/12/11 03:26:50;;;;;;;15.25;5.95;;;-1.70;98.80;;;;;;4184805;28;20098;-81
2021/12/11 03:28:52;;;;;;;14.95;6.22;;;-1.30;99.10;;;;;;4185766;28;20068;-80
2021/12/11 03:30:57;;;;;;;14.63;5.65;;;-1.00;99.00;;;;;;4167942;28;20076;-81
2021/12/11 03:33:02;;;;;;;15.43;6.05;;;-1.60;98.80;;;;;;4150448;28;20103;-81
2021/12/11 03:35:06;;;;;;;15.35;6.18;;;-1.10;99.10;;;;;;4160228;28;20055;-80
2021/12/11 03:37:09;;;;;;;14.82;6.28;;;-1.70;98.90;;;;;;4166666;28;20042;-81
2021/12/11 03:39:22;;;;;;;20.52;6.13;;;-1.70;99.00;;;;;;4151325;28;20066;-81
2021/12/11 03:41:27;;;;;;;16.60;6.35;;;-2.40;99.00;;;;;;4183453;28;20493;-81
2021/12/11 03:43:30;;;;;;;16.40;6.78;;;-0.50;99.50;;;;;;4184985;28;20049;-81
2021/12/11 03:45:37;;;;;;;16.83;7.20;;;-1.30;99.40;;;;;;4166352;28;20056;-81
2021/12/11 03:47:43;;;;;;;16.88;6.65;;;-0.50;99.40;;;;;;4183177;28;20389;-81
2021/12/11 03:49:45;;;;;;;13.60;5.90;;;-1.10;99.30;;;;;;4150808;28;20046;-81
2021/12/11 03:51:50;;;;;;;15.02;5.55;;;-1.20;99.30;;;;;;4167204;28;20481;-81
2021/12/11 03:53:51;;;;;;;14.05;5.30;;;-0.90;99.30;;;;;;4150355;28;20049;-82
2021/12/11 03:56:00;;;;;;;15.90;5.88;;;-1.10;99.30;;;;;;4149965;28;20129;-81
2021/12/11 03:58:04;;;;;;;19.90;6.32;;;-1.60;99.10;;;;;;4184167;28;20099;-81
2021/12/11 04:00:11;;;;;;;17.30;6.93;;;-0.50;99.40;;;;;;4183675;28;20037;-81
2021/12/11 04:02:15;;;;;;;15.65;6.22;;;-1.60;99.10;;;;;;4167067;28;20055;-81
2021/12/11 04:04:57;;;;;;;17.83;6.53;;;-3.00;98.70;;;;;;4173135;28;20049;-81
2021/12/11 04:07:01;;;;;;;16.13;6.30;;;-0.50;99.70;;;;;;4154477;28;20124;-81
2021/12/11 04:09:07;;;;;;;16.77;6.50;;;-0.70;99.60;;;;;;4165871;28;20042;-81
2021/12/11 04:11:14;;;;;;;16.45;5.90;;;-1.90;99.20;;;;;;4178833;28;20055;-81
2021/12/11 04:13:18;;;;;;;21.48;6.45;;;-0.60;99.50;;;;;;4183686;28;20043;-81
2021/12/11 04:15:21;;;;;;;16.08;5.97;;;-0.60;99.60;;;;;;4167421;28;20049;-81
2021/12/11 04:17:25;;;;;;;12.35;5.47;;;-0.80;99.70;;;;;;4166566;28;20549;-81
2021/12/11 04:19:27;;;;;;;14.50;5.40;;;-0.50;99.60;;;;;;4158995;28;20049;-81
2021/12/11 04:21:28;;;;;;;13.88;5.85;;;-0.60;99.60;;;;;;4166978;28;20049;-81
2021/12/11 04:23:30;;;;;;;17.20;6.15;;;-2.10;99.30;;;;;;4150628;28;20048;-81
2021/12/11 04:25:34;;;;;;;17.27;6.13;;;-1.60;99.50;;;;;;4167222;28;20073;-80
2021/12/11 04:27:36;;;;;;;17.20;6.20;;;-0.90;99.60;;;;;;4166719;28;20418;-81
2021/12/11 04:29:39;;;;;;;14.13;5.43;;;-1.60;99.80;;;;;;4184202;28;20112;-80
2021/12/11 04:31:43;;;;;;;17.02;6.63;;;-1.10;99.60;;;;;;4166843;28;20053;-80
2021/12/11 04:33:47;;;;;;;14.23;5.80;;;-2.00;99.70;;;;;;4167504;28;20050;-81
2021/12/11 04:35:49;;;;;;;15.15;6.35;;;-2.40;99.50;;;;;;4184504;28;20126;-81
2021/12/11 04:37:50;;;;;;;105.85;43.58;;;-1.10;99.90;;;;;;4138719;28;20098;-81
2021/12/11 04:39:58;;;;;;;15.93;7.43;;;-2.30;99.80;;;;;;4148230;28;20046;-81
2021/12/11 04:42:13;;;;;;;15.63;6.43;;;-2.10;99.60;;;;;;4150662;28;20514;-80
2021/12/11 04:44:28;;;;;;;15.85;6.07;;;-1.80;99.70;;;;;;4168736;28;20577;-81
2021/12/11 04:46:29;;;;;;;11.23;5.25;;;-1.80;99.60;;;;;;4162925;28;20125;-82
2021/12/11 04:52:59;;;;;;;21.58;7.15;;;-0.90;99.90;;;;;;4185146;28;20103;-81
2021/12/11 04:55:38;;;;;;;15.95;6.82;;;-2.10;99.80;;;;;;4184515;28;20115;-81
2021/12/11 05:10:59;;;;;;;18.10;6.70;;;-1.00;99.90;;;;;;4184448;28;20137;-81
2021/12/11 05:13:00;;;;;;;23.15;8.43;;;-1.90;99.80;;;;;;4184759;28;20524;-81
2021/12/11 05:15:05;;;;;;;17.48;7.30;;;-0.90;99.90;;;;;;4151669;28;20060;-81
2021/12/11 05:17:18;;;;;;;21.23;8.32;;;-1.60;99.80;;;;;;4185069;28;20130;-81
2021/12/11 05:19:20;;;;;;;22.02;7.45;;;-0.60;99.90;;;;;;4151236;28;20049;-80
2021/12/11 05:21:22;;;;;;;23.15;7.35;;;-1.50;99.90;;;;;;4170785;28;20129;-81
2021/12/11 05:23:24;;;;;;;20.90;7.75;;;-1.70;99.80;;;;;;4154575;28;20038;-81
2021/12/11 05:25:26;;;;;;;20.33;7.72;;;-1.70;99.90;;;;;;4188263;28;20417;-80
2021/12/11 05:27:28;;;;;;;18.25;7.22;;;-0.50;99.90;;;;;;4170348;28;20068;-80
2021/12/11 05:29:30;;;;;;;19.80;7.28;;;-2.40;99.80;;;;;;4154280;28;20073;-81
2021/12/11 05:31:31;;;;;;;19.00;7.90;;;-1.20;99.90;;;;;;4170082;28;20056;-81
2021/12/11 05:33:33;;;;;;;21.88;9.43;;;-0.70;99.90;;;;;;4153431;28;20054;-81
2021/12/11 05:35:37;;;;;;;21.10;7.70;;;-0.40;99.90;;;;;;4170043;28;20042;-81
2021/12/11 05:37:39;;;;;;;24.63;7.57;;;-0.20;99.90;;;;;;4151952;28;20053;-81
2021/12/11 05:39:41;;;;;;;21.20;8.20;;;-0.50;99.90;;;;;;4186712;28;20037;-81
2021/12/11 05:41:44;;;;;;;22.00;8.25;;;-0.50;99.90;;;;;;4153314;28;20060;-81
2021/12/11 05:43:48;;;;;;;21.83;8.45;;;-0.50;99.90;;;;;;4169845;28;20049;-81
2021/12/11 05:45:55;;;;;;;22.63;8.52;;;-0.50;99.90;;;;;;4153756;28;20491;-80
2021/12/11 05:47:57;;;;;;;23.00;8.20;;;-0.70;99.90;;;;;;4153480;28;20057;-81
2021/12/11 05:49:59;;;;;;;24.13;8.98;;;-0.70;99.90;;;;;;4188791;28;20456;-81
2021/12/11 05:52:05;;;;;;;20.05;8.45;;;0.00;99.90;;;;;;4154782;28;20060;-81
2021/12/11 05:54:12;;;;;;;24.77;8.38;;;-1.20;99.90;;;;;;4165585;28;20037;-81
2021/12/11 05:56:13;;;;;;;22.67;8.73;;;-1.40;99.90;;;;;;4144788;28;20058;-80
2021/12/11 05:58:24;;;;;;;23.40;10.07;;;0.00;99.90;;;;;;4164722;28;20056;-81
2021/12/11 06:00:29;;;;;;;23.77;8.45;;;-1.40;99.90;;;;;;4191407;28;20179;-80
2021/12/11 06:02:30;;;;;;;21.75;9.07;;;-1.30;99.90;;;;;;4159288;28;20054;-80
2021/12/11 06:04:34;;;;;;;24.83;10.00;;;-0.20;99.90;;;;;;4144115;28;20054;-79
2021/12/11 06:06:37;;;;;;;25.75;8.23;;;-0.20;99.90;;;;;;4174395;28;20053;-82
2021/12/11 06:08:44;;;;;;;22.38;8.38;;;-1.10;99.90;;;;;;4153386;28;20085;-81
2021/12/11 06:10:51;;;;;;;28.88;9.95;;;0.10;99.90;;;;;;4153227;28;20118;-81
2021/12/11 06:12:55;;;;;;;22.92;8.32;;;-0.90;99.90;;;;;;4153617;28;20038;-81
2021/12/11 06:14:57;;;;;;;27.77;9.30;;;-1.20;99.90;;;;;;4170590;28;20073;-81
2021/12/11 06:17:02;;;;;;;25.02;8.88;;;0.10;99.90;;;;;;4180540;28;20056;-81
2021/12/11 06:19:05;;;;;;;24.58;9.68;;;0.50;99.90;;;;;;4168381;28;20521;-80
2021/12/11 06:21:08;;;;;;;19.92;8.25;;;-0.10;99.90;;;;;;4168436;28;20084;-81
2021/12/11 06:23:09;;;;;;;26.08;9.15;;;-0.90;99.90;;;;;;4186588;28;20044;-81
2021/12/11 06:25:16;;;;;;;22.40;8.52;;;-0.30;99.90;;;;;;4185897;28;20041;-80
2021/12/11 06:27:17;;;;;;;29.38;9.35;;;-0.90;99.90;;;;;;4168430;28;20050;-81
2021/12/11 06:29:18;;;;;;;23.65;9.23;;;-0.80;99.90;;;;;;4168773;28;20049;-81
2021/12/11 06:31:19;;;;;;;22.63;8.85;;;-0.80;99.90;;;;;;4169377;28;20060;-81
2021/12/11 06:33:21;;;;;;;31.92;9.20;;;-0.80;99.90;;;;;;4151424;28;20058;-81
2021/12/11 06:35:34;;;;;;;21.35;8.57;;;0.00;99.90;;;;;;4152798;28;20514;-81
2021/12/11 06:37:35;;;;;;;20.73;8.10;;;0.10;99.90;;;;;;4152035;28;20502;-82
2021/12/11 06:39:36;;;;;;;23.70;8.88;;;-1.20;99.90;;;;;;4136095;28;20093;-81
2021/12/11 06:41:42;;;;;;;28.48;9.60;;;0.50;99.90;;;;;;4184358;28;20409;-81
2021/12/11 06:43:43;;;;;;;27.15;9.25;;;-0.10;99.90;;;;;;4152037;28;20547;-81
2021/12/11 06:45:45;;;;;;;25.40;9.05;;;-0.20;99.90;;;;;;4152646;28;20050;-81
2021/12/11 06:47:46;;;;;;;24.00;8.68;;;-0.10;99.90;;;;;;4185320;28;20048;-82
2021/12/11 06:49:47;;;;;;;24.85;9.82;;;-1.60;99.90;;;;;;4152728;28;20061;-81
2021/12/11 06:51:48;;;;;;;23.73;8.73;;;-1.10;99.90;;;;;;4155006;28;20061;-81
2021/12/11 06:54:16;;;;;;;20.45;8.13;;;-0.40;99.90;;;;;;4161368;28;20046;-81
2021/12/11 06:56:20;;;;;;;26.35;10.05;;;0.00;99.90;;;;;;4149902;28;20100;-82
2021/12/11 06:58:23;;;;;;;25.02;9.18;;;-0.90;99.90;;;;;;4157438;28;20037;-82
2021/12/11 07:00:26;;;;;;;25.02;9.32;;;-0.70;99.90;;;;;;4168510;28;20049;-82
2021/12/11 07:02:28;;;;;;;23.23;9.35;;;-0.90;99.90;;;;;;4168353;28;20618;-81
2021/12/11 07:04:28;;;;;;;24.33;9.77;;;-0.40;99.90;;;;;;4168322;28;20042;-81
2021/12/11 07:06:32;;;;;;;27.58;9.10;;;-0.90;99.90;;;;;;4168562;28;20155;-81
2021/12/11 07:08:32;;;;;;;21.73;9.50;;;-0.20;99.90;;;;;;4168430;28;20081;-81
2021/12/11 07:10:34;;;;;;;26.42;10.43;;;-0.20;99.90;;;;;;4154024;28;20041;-82
2021/12/11 07:12:36;;;;;;;23.35;8.55;;;-0.90;99.90;;;;;;4151762;28;20510;-81
2021/12/11 07:14:38;;;;;;;29.17;10.73;;;-1.10;99.90;;;;;;4151830;28;20091;-81
2021/12/11 07:16:39;;;;;;;27.58;10.65;;;0.30;99.90;;;;;;4142526;28;20522;-81
2021/12/11 07:18:40;;;;;;;27.45;9.32;;;-0.10;99.90;;;;;;4184771;28;20049;-80
2021/12/11 07:20:43;;;;;;;24.30;9.52;;;-0.10;99.90;;;;;;4167829;28;20069;-81
2021/12/11 07:22:44;;;;;;;26.17;9.98;;;-0.80;99.90;;;;;;4167714;28;20042;-82
2021/12/11 07:24:58;;;;;;;28.25;9.25;;;-1.10;99.90;;;;;;4167946;28;20042;-81
2021/12/11 07:27:03;;;;;;;29.20;9.70;;;-0.90;99.90;;;;;;4149708;28;20104;-80
2021/12/11 07:29:13;;;;;;;23.67;9.20;;;0.10;99.90;;;;;;4175122;28;20050;-81
2021/12/11 07:31:19;;;;;;;27.40;10.32;;;-1.20;99.90;;;;;;4150764;28;20151;-81
2021/12/11 07:33:20;;;;;;;24.92;9.15;;;-0.90;99.90;;;;;;4168359;28;20058;-80
2021/12/11 07:35:22;;;;;;;25.70;9.50;;;-0.20;99.90;;;;;;4151319;28;20121;-81
2021/12/11 07:37:22;;;;;;;23.52;9.43;;;-0.90;99.90;;;;;;4151575;28;20049;-81
2021/12/11 07:39:25;;;;;;;23.85;10.25;;;-0.30;99.90;;;;;;4168794;28;20033;-81
2021/12/11 07:41:26;;;;;;;29.33;9.32;;;-0.30;99.90;;;;;;4165520;28;20497;-81
2021/12/11 07:43:28;;;;;;;30.38;10.55;;;-0.80;99.90;;;;;;4149825;28;20050;-81
2021/12/11 07:45:31;;;;;;;24.90;9.80;;;-0.10;99.90;;;;;;4140168;28;20042;-81
2021/12/11 07:47:32;;;;;;;27.08;9.55;;;-1.40;99.90;;;;;;4151256;28;20116;-81
2021/12/11 07:49:34;;;;;;;20.65;8.60;;;-0.40;99.90;;;;;;4185735;28;20041;-82
2021/12/11 07:51:37;;;;;;;27.75;9.82;;;-0.60;99.90;;;;;;4185874;28;20123;-81
2021/12/11 07:53:38;;;;;;;27.52;9.32;;;0.60;99.90;;;;;;4151263;28;20077;-82
2021/12/11 07:55:40;;;;;;;26.80;9.50;;;-0.70;99.90;;;;;;4185907;28;20032;-82
2021/12/11 07:57:45;;;;;;;27.73;10.63;;;0.50;99.90;;;;;;4168409;28;20077;-82
2021/12/11 07:59:48;;;;;;;25.48;9.30;;;0.00;99.90;;;;;;4168004;28;20045;-82
2021/12/11 08:01:52;;;;;;;26.80;9.40;;;0.00;99.90;;;;;;4184165;28;20047;-81
2021/12/11 08:03:57;;;;;;;27.58;9.80;;;0.70;99.90;;;;;;4167564;28;20053;-81
2021/12/11 08:05:57;;;;;;;26.55;10.23;;;-0.20;99.90;;;;;;4151757;28;20049;-81
2021/12/11 08:08:03;;;;;;;24.17;10.40;;;-0.70;99.90;;;;;;4169108;28;20049;-81
2021/12/11 08:10:07;;;;;;;31.77;11.32;;;0.70;99.90;;;;;;4169338;28;20043;-80
2021/12/11 08:12:10;;;;;;;30.65;9.48;;;-0.50;99.90;;;;;;4169185;28;20099;-82
2021/12/11 08:14:13;;;;;;;30.67;11.02;;;-0.40;99.90;;;;;;4134916;28;20053;-81
2021/12/11 08:16:21;;;;;;;28.20;10.40;;;-0.70;99.90;;;;;;4155029;28;20472;-81
2021/12/11 08:18:26;;;;;;;28.52;10.43;;;-0.80;99.90;;;;;;4144445;28;20466;-83
2021/12/11 08:20:33;;;;;;;23.23;8.82;;;0.80;99.90;;;;;;4135131;28;20042;-81
2021/12/11 08:22:35;;;;;;;26.38;10.93;;;-0.50;99.90;;;;;;4157666;28;20053;-81
2021/12/11 08:24:38;;;;;;;33.53;10.07;;;0.00;99.90;;;;;;4185212;28;20040;-81
2021/12/11 08:26:41;;;;;;;25.55;9.60;;;-0.50;99.90;;;;;;4166465;28;20462;-81
2021/12/11 08:28:42;;;;;;;30.77;10.25;;;0.30;99.90;;;;;;4184986;28;20044;-80
2021/12/11 08:30:47;;;;;;;25.48;9.60;;;0.70;99.90;;;;;;4166124;28;20041;-80
2021/12/11 08:32:48;;;;;;;35.10;12.05;;;-0.20;99.90;;;;;;4156050;28;20088;-80
2021/12/11 08:34:53;;;;;;;30.73;9.52;;;0.20;99.90;;;;;;4174771;28;20056;-80
2021/12/11 08:36:55;;;;;;;29.63;10.02;;;1.50;99.90;;;;;;4165634;28;20115;-79
2021/12/11 08:38:59;;;;;;;27.38;10.40;;;1.20;99.90;;;;;;4149080;28;20053;-79
2021/12/11 08:41:02;;;;;;;30.83;10.55;;;2.20;99.90;;;;;;4164637;28;20144;-79
2021/12/11 08:43:05;;;;;;;27.40;9.48;;;0.90;99.90;;;;;;4182531;28;20071;-80
2021/12/11 08:45:10;;;;;;;22.77;8.63;;;1.30;99.70;;;;;;4150579;28;20058;-79
2021/12/11 08:47:11;;;;;;;25.13;9.40;;;1.10;99.50;;;;;;4169925;28;20466;-79
2021/12/11 08:49:19;;;;;;;26.80;9.93;;;2.10;99.90;;;;;;4164215;28;20045;-80
2021/12/11 08:51:33;;;;;;;19.93;8.63;;;1.60;99.70;;;;;;4163343;28;20390;-79
2021/12/11 08:53:37;;;;;;;22.08;9.45;;;2.50;99.90;;;;;;4154543;28;20354;-80
2021/12/11 08:55:42;;;;;;;19.00;8.45;;;2.90;99.70;;;;;;4166096;28;20045;-81
2021/12/11 08:57:44;;;;;;;24.60;8.60;;;2.60;98.70;;;;;;4150051;28;20466;-81
2021/12/11 08:59:50;;;;;;;23.75;8.40;;;3.20;98.10;;;;;;4182702;28;20041;-80
2021/12/11 09:02:06;;;;;;;22.25;9.23;;;3.40;97.50;;;;;;4183793;28;20044;-81
2021/12/11 09:04:15;;;;;;;20.65;7.53;;;3.60;96.90;;;;;;4149216;28;20437;-80
2021/12/11 09:06:21;;;;;;;19.92;7.40;;;3.90;96.80;;;;;;4149934;28;20050;-81
2021/12/11 09:08:34;;;;;;;19.67;7.78;;;5.40;96.50;;;;;;4166170;28;20053;-81
2021/12/11 09:10:53;;;;;;;20.13;8.00;;;;;;;;;;4183126;28;20130;-80
2021/12/11 09:13:04;;;;;;;25.23;8.30;;;4.60;95.60;;;;;;4183236;28;20489;-81
2021/12/11 09:15:11;;;;;;;16.60;7.07;;;5.60;94.50;;;;;;4165032;28;20060;-80
2021/12/11 09:17:32;;;;;;;20.23;6.80;;;5.90;94.10;;;;;;4165105;28;20061;-80
2021/12/11 09:19:41;;;;;;;17.35;7.13;;;6.30;92.90;;;;;;4183329;28;20551;-81
2021/12/11 09:21:48;;;;;;;18.98;7.57;;;6.60;93.10;;;;;;4182818;28;20099;-80
2021/12/11 09:23:53;;;;;;;18.63;7.63;;;;;;;;;;4165142;28;20240;-80
2021/12/11 09:26:00;;;;;;;17.02;7.20;;;8.20;93.30;;;;;;4165234;28;20052;-86
2021/12/11 09:28:10;;;;;;;15.60;7.65;;;7.60;92.70;;;;;;4179755;28;20531;-81
2021/12/11 09:30:25;;;;;;;18.05;6.70;;;7.30;92.30;;;;;;4175526;28;20106;-82
2021/12/11 09:33:04;;;;;;;17.90;7.32;;;7.50;92.10;;;;;;4182045;28;20041;-82
2021/12/11 09:35:33;;;;;;;16.02;7.50;;;7.70;92.10;;;;;;4166304;28;20056;-82
2021/12/11 09:37:35;;;;;;;15.88;6.80;;;7.70;91.00;;;;;;4160518;28;20056;-82
2021/12/11 09:39:40;;;;;;;18.05;7.55;;;8.70;92.60;;;;;;4169784;28;20041;-82
2021/12/11 09:41:40;;;;;;;16.88;6.80;;;7.60;92.80;;;;;;4181499;28;20072;-82
2021/12/11 09:43:59;;;;;;;16.48;6.53;;;7.40;93.00;;;;;;4185310;28;20052;-82
2021/12/11 09:46:00;;;;;;;17.38;6.65;;;6.90;93.50;;;;;;4166621;28;20457;-82
2021/12/11 09:48:17;;;;;;;18.90;6.97;;;6.30;94.20;;;;;;4168264;28;20041;-82
2021/12/11 09:50:30;;;;;;;19.67;6.82;;;6.10;95.20;;;;;;4154924;28;20501;-83
2021/12/11 09:52:33;;;;;;;17.80;7.35;;;6.50;95.80;;;;;;4173253;28;20054;-82
2021/12/11 09:54:35;;;;;;;19.45;7.28;;;5.90;95.90;;;;;;4165598;28;20042;-82
2021/12/11 09:56:50;;;;;;;15.27;6.60;;;5.70;96.10;;;;;;4161356;28;20541;-82
2021/12/11 09:58:51;;;;;;;18.48;6.55;;;5.60;96.90;;;;;;4158793;28;20042;-82
2021/12/11 10:01:03;;;;;;;18.90;6.95;;;5.50;97.30;;;;;;4169863;28;20064;-82
2021/12/11 10:03:08;;;;;;;17.58;6.43;;;5.50;96.90;;;;;;4168209;28;20045;-82
2021/12/11 10:05:30;;;;;;;17.20;6.75;;;6.80;97.70;;;;;;4177488;28;20033;-82
2021/12/11 10:07:39;;;;;;;22.70;7.10;;;5.70;97.60;;;;;;4183263;28;20045;-81
2021/12/11 10:09:49;;;;;;;14.88;6.97;;;5.80;97.70;;;;;;4183226;28;20044;-82
2021/12/11 10:12:16;;;;;;;17.02;7.40;;;5.80;97.20;;;;;;4183372;28;20063;-83
2021/12/11 10:14:20;;;;;;;17.25;7.45;;;5.70;96.90;;;;;;4148938;28;20057;-82
2021/12/11 10:16:26;;;;;;;17.73;7.65;;;6.00;97.50;;;;;;4183212;28;20143;-83
2021/12/11 10:18:29;;;;;;;15.45;7.32;;;6.90;96.50;;;;;;4165251;28;20119;-83
2021/12/11 10:20:55;;;;;;;16.38;6.80;;;5.80;97.30;;;;;;4165300;28;20050;-83
2021/12/11 10:22:59;;;;;;;18.58;7.13;;;5.80;97.60;;;;;;4164401;28;20058;-83
2021/12/11 10:25:00;;;;;;;15.90;7.45;;;6.10;97.60;;;;;;4148967;28;20137;-82
2021/12/11 10:27:04;;;;;;;18.42;7.72;;;7.20;97.80;;;;;;4165115;28;20042;-83
2021/12/11 10:29:11;;;;;;;17.42;6.93;;;6.20;97.10;;;;;;4183054;28;20172;-83
2021/12/11 10:31:26;;;;;;;19.95;7.68;;;6.20;97.20;;;;;;4183121;28;20478;-82
2021/12/11 10:33:29;;;;;;;18.13;7.63;;;;;;;;;;4184091;28;20578;-83
2021/12/11 10:35:36;;;;;;;19.75;6.93;;;;;;;;;;4183212;28;20048;-83
2021/12/11 10:37:38;;;;;;;21.70;7.15;;;;;;;;;;4182543;28;20138;-83
2021/12/11 10:39:44;;;;;;;16.48;7.43;;;;;;;;;;4183021;28;20044;-82
2021/12/11 10:41:46;;;;;;;16.42;6.90;;;6.50;97.00;;;;;;4164755;28;20049;-82
2021/12/11 10:43:57;;;;;;;15.88;6.53;;;6.70;96.80;;;;;;4163755;28;20046;-82
2021/12/11 10:46:00;;;;;;;17.35;6.65;;;6.90;96.20;;;;;;4182774;28;20045;-82
2021/12/11 10:48:05;;;;;;;17.85;7.25;;;6.60;95.80;;;;;;4182566;28;20405;-82
2021/12/11 10:50:31;;;;;;;17.92;6.95;;;6.70;96.40;;;;;;4182439;28;20081;-82
2021/12/11 10:52:32;;;;;;;17.48;7.60;;;6.90;94.30;;;;;;4157579;28;20502;-81
2021/12/11 10:54:33;;;;;;;16.65;7.45;;;7.00;96.10;;;;;;4165705;28;20056;-81
2021/12/11 10:56:35;;;;;;;18.27;6.80;;;7.30;96.10;;;;;;4131899;28;20085;-80
2021/12/11 10:58:41;;;;;;;13.48;6.47;;;7.20;95.70;;;;;;4154687;28;20255;-80
2021/12/11 11:00:48;;;;;;;16.30;6.95;;;8.00;95.50;;;;;;4164669;28;20087;-81
2021/12/11 11:02:49;;;;;;;12.60;6.32;;;7.60;95.90;;;;;;4164623;28;20128;-81
2021/12/11 11:05:05;;;;;;;20.60;8.05;;;7.00;95.10;;;;;;4181984;28;20044;-81
2021/12/11 11:07:07;;;;;;;18.25;7.53;;;7.00;95.70;;;;;;4164235;28;20107;-83
2021/12/11 11:09:09;;;;;;;21.13;7.70;;;7.30;95.30;;;;;;4164853;28;20108;-82
2021/12/11 11:11:15;;;;;;;16.85;7.40;;;7.60;95.40;;;;;;4182319;28;20049;-82
2021/12/11 11:13:19;;;;;;;19.50;7.13;;;7.20;95.40;;;;;;4163628;28;20132;-83